sensor_id;sensor_type;location;lat;lon;timestamp;P1;durP1;ratioP1;P2;durP2;ratioP2
10150;SDS011;5116;52.318;4.644;2022-08-19T00:01:22;1.40;;;1.30;;
10150;SDS011;5116;52.318;4.644;2022-08-19T00:03:59;1.93;;;1.40;;
10150;SDS011;5116;52.318;4.644;2022-08-19T00:06:27;1.20;;;1.10;;
10150;SDS011;5116;52.318;4.644;2022-08-19T00:08:56;1.23;;;1.13;;
10150;SDS011;5116;52.318;4.644;2022-08-19T00:11:24;1.40;;;1.30;;
10150;SDS011;5116;52.318;4.644;2022-08-19T00:13:54;1.60;;;1.50;;
10150;SDS011;5116;52.318;4.644;2022-08-19T00:16:23;1.33;;;1.23;;
10150;SDS011;5116;52.318;4.644;2022-08-19T00:18:52;1.40;;;1.30;;
10150;SDS011;5116;52.318;4.644;2022-08-19T00:21:22;1.50;;;1.40;;
10150;SDS011;5116;52.318;4.644;2022-08-19T00:23:49;1.77;;;1.57;;
10150;SDS011;5116;52.318;4.644;2022-08-19T00:26:17;2.17;;;1.60;;
10150;SDS011;5116;52.318;4.644;2022-08-19T00:28:44;1.20;;;1.10;;
10150;SDS011;5116;52.318;4.644;2022-08-19T00:31:12;1.40;;;1.30;;
10150;SDS011;5116;52.318;4.644;2022-08-19T00:33:40;1.60;;;1.50;;
10150;SDS011;5116;52.318;4.644;2022-08-19T00:36:07;1.87;;;1.43;;
10150;SDS011;5116;52.318;4.644;2022-08-19T00:38:36;1.60;;;1.50;;
10150;SDS011;5116;52.318;4.644;2022-08-19T00:41:04;1.53;;;1.43;;
10150;SDS011;5116;52.318;4.644;2022-08-19T00:43:32;1.40;;;1.30;;
10150;SDS011;5116;52.318;4.644;2022-08-19T00:45:59;1.87;;;1.40;;
10150;SDS011;5116;52.318;4.644;2022-08-19T00:48:31;1.37;;;1.20;;
10150;SDS011;5116;52.318;4.644;2022-08-19T00:50:59;1.53;;;1.43;;
10150;SDS011;5116;52.318;4.644;2022-08-19T00:53:28;1.60;;;1.50;;
10150;SDS011;5116;52.318;4.644;2022-08-19T00:55:58;1.73;;;1.57;;
10150;SDS011;5116;52.318;4.644;2022-08-19T00:58:27;1.60;;;1.50;;
10150;SDS011;5116;52.318;4.644;2022-08-19T01:00:55;1.43;;;1.33;;
10150;SDS011;5116;52.318;4.644;2022-08-19T01:03:23;3.40;;;2.00;;
10150;SDS011;5116;52.318;4.644;2022-08-19T01:05:50;1.37;;;1.27;;
10150;SDS011;5116;52.318;4.644;2022-08-19T01:08:19;1.40;;;1.30;;
10150;SDS011;5116;52.318;4.644;2022-08-19T01:10:50;1.40;;;1.30;;
10150;SDS011;5116;52.318;4.644;2022-08-19T01:13:19;1.40;;;1.30;;
10150;SDS011;5116;52.318;4.644;2022-08-19T01:15:55;1.53;;;1.43;;
10150;SDS011;5116;52.318;4.644;2022-08-19T01:18:23;1.63;;;1.53;;
10150;SDS011;5116;52.318;4.644;2022-08-19T01:20:51;1.57;;;1.47;;
10150;SDS011;5116;52.318;4.644;2022-08-19T01:23:20;1.47;;;1.37;;
10150;SDS011;5116;52.318;4.644;2022-08-19T01:25:49;1.50;;;1.40;;
10150;SDS011;5116;52.318;4.644;2022-08-19T01:28:18;1.60;;;1.43;;
10150;SDS011;5116;52.318;4.644;2022-08-19T01:30:59;1.40;;;1.30;;
10150;SDS011;5116;52.318;4.644;2022-08-19T01:33:33;1.43;;;1.30;;
10150;SDS011;5116;52.318;4.644;2022-08-19T01:36:04;1.73;;;1.30;;
10150;SDS011;5116;52.318;4.644;2022-08-19T01:38:34;1.37;;;1.27;;
10150;SDS011;5116;52.318;4.644;2022-08-19T01:41:10;2.23;;;1.43;;
10150;SDS011;5116;52.318;4.644;2022-08-19T01:43:38;1.40;;;1.30;;
10150;SDS011;5116;52.318;4.644;2022-08-19T01:46:25;1.30;;;1.20;;
10150;SDS011;5116;52.318;4.644;2022-08-19T01:48:52;1.30;;;1.20;;
10150;SDS011;5116;52.318;4.644;2022-08-19T01:51:20;2.10;;;1.47;;
10150;SDS011;5116;52.318;4.644;2022-08-19T01:53:48;1.40;;;1.30;;
10150;SDS011;5116;52.318;4.644;2022-08-19T01:56:15;1.40;;;1.30;;
10150;SDS011;5116;52.318;4.644;2022-08-19T01:58:44;1.50;;;1.40;;
10150;SDS011;5116;52.318;4.644;2022-08-19T02:01:12;1.20;;;1.10;;
10150;SDS011;5116;52.318;4.644;2022-08-19T02:03:40;1.77;;;1.67;;
10150;SDS011;5116;52.318;4.644;2022-08-19T02:06:07;1.67;;;1.50;;
10150;SDS011;5116;52.318;4.644;2022-08-19T02:08:37;2.10;;;1.90;;
10150;SDS011;5116;52.318;4.644;2022-08-19T02:11:05;1.60;;;1.50;;
10150;SDS011;5116;52.318;4.644;2022-08-19T02:13:33;1.80;;;1.40;;
10150;SDS011;5116;52.318;4.644;2022-08-19T02:16:00;1.57;;;1.40;;
10150;SDS011;5116;52.318;4.644;2022-08-19T02:18:30;1.63;;;1.50;;
10150;SDS011;5116;52.318;4.644;2022-08-19T02:20:57;3.13;;;1.70;;
10150;SDS011;5116;52.318;4.644;2022-08-19T02:23:24;1.40;;;1.30;;
10150;SDS011;5116;52.318;4.644;2022-08-19T02:25:53;1.40;;;1.30;;
10150;SDS011;5116;52.318;4.644;2022-08-19T02:28:20;1.40;;;1.30;;
10150;SDS011;5116;52.318;4.644;2022-08-19T02:30:48;1.40;;;1.30;;
10150;SDS011;5116;52.318;4.644;2022-08-19T02:33:15;1.33;;;1.23;;
10150;SDS011;5116;52.318;4.644;2022-08-19T02:35:43;1.27;;;1.17;;
10150;SDS011;5116;52.318;4.644;2022-08-19T02:38:11;1.50;;;1.40;;
10150;SDS011;5116;52.318;4.644;2022-08-19T02:40:56;1.37;;;1.20;;
10150;SDS011;5116;52.318;4.644;2022-08-19T02:43:24;1.90;;;1.50;;
10150;SDS011;5116;52.318;4.644;2022-08-19T02:45:52;1.53;;;1.43;;
10150;SDS011;5116;52.318;4.644;2022-08-19T02:48:20;1.60;;;1.50;;
10150;SDS011;5116;52.318;4.644;2022-08-19T02:50:48;1.90;;;1.60;;
10150;SDS011;5116;52.318;4.644;2022-08-19T02:53:20;2.70;;;1.43;;
10150;SDS011;5116;52.318;4.644;2022-08-19T02:55:50;1.17;;;1.10;;
10150;SDS011;5116;52.318;4.644;2022-08-19T02:58:18;1.47;;;1.37;;
10150;SDS011;5116;52.318;4.644;2022-08-19T03:00:48;1.50;;;1.40;;
10150;SDS011;5116;52.318;4.644;2022-08-19T03:03:16;1.90;;;1.50;;
10150;SDS011;5116;52.318;4.644;2022-08-19T03:05:43;1.50;;;1.40;;
10150;SDS011;5116;52.318;4.644;2022-08-19T03:08:21;1.40;;;1.30;;
10150;SDS011;5116;52.318;4.644;2022-08-19T03:10:49;1.43;;;1.33;;
10150;SDS011;5116;52.318;4.644;2022-08-19T03:13:18;1.53;;;1.43;;
10150;SDS011;5116;52.318;4.644;2022-08-19T03:15:46;1.60;;;1.50;;
10150;SDS011;5116;52.318;4.644;2022-08-19T03:18:14;1.77;;;1.67;;
10150;SDS011;5116;52.318;4.644;2022-08-19T03:20:44;1.70;;;1.60;;
10150;SDS011;5116;52.318;4.644;2022-08-19T03:23:11;1.67;;;1.50;;
10150;SDS011;5116;52.318;4.644;2022-08-19T03:25:39;1.60;;;1.50;;
10150;SDS011;5116;52.318;4.644;2022-08-19T03:28:13;3.07;;;1.70;;
10150;SDS011;5116;52.318;4.644;2022-08-19T03:30:41;1.53;;;1.43;;
10150;SDS011;5116;52.318;4.644;2022-08-19T03:33:10;1.87;;;1.50;;
10150;SDS011;5116;52.318;4.644;2022-08-19T03:36:32;1.80;;;1.70;;
10150;SDS011;5116;52.318;4.644;2022-08-19T03:38:42;1.97;;;1.83;;
10150;SDS011;5116;52.318;4.644;2022-08-19T03:41:11;1.60;;;1.50;;
10150;SDS011;5116;52.318;4.644;2022-08-19T03:43:39;2.63;;;1.37;;
10150;SDS011;5116;52.318;4.644;2022-08-19T03:46:08;2.00;;;1.80;;
10150;SDS011;5116;52.318;4.644;2022-08-19T03:48:36;1.53;;;1.40;;
10150;SDS011;5116;52.318;4.644;2022-08-19T03:51:05;1.77;;;1.53;;
10150;SDS011;5116;52.318;4.644;2022-08-19T03:53:34;2.03;;;1.60;;
10150;SDS011;5116;52.318;4.644;2022-08-19T03:56:02;1.87;;;1.70;;
10150;SDS011;5116;52.318;4.644;2022-08-19T03:58:29;2.77;;;1.87;;
10150;SDS011;5116;52.318;4.644;2022-08-19T04:00:57;2.27;;;1.97;;
10150;SDS011;5116;52.318;4.644;2022-08-19T04:03:25;2.87;;;1.77;;
10150;SDS011;5116;52.318;4.644;2022-08-19T04:05:53;1.70;;;1.57;;
10150;SDS011;5116;52.318;4.644;2022-08-19T04:08:20;1.97;;;1.80;;
10150;SDS011;5116;52.318;4.644;2022-08-19T04:10:48;1.80;;;1.70;;
10150;SDS011;5116;52.318;4.644;2022-08-19T04:13:16;2.07;;;1.87;;
10150;SDS011;5116;52.318;4.644;2022-08-19T04:15:45;2.67;;;2.10;;
10150;SDS011;5116;52.318;4.644;2022-08-19T04:18:13;2.13;;;1.73;;
10150;SDS011;5116;52.318;4.644;2022-08-19T04:20:42;2.20;;;2.00;;
10150;SDS011;5116;52.318;4.644;2022-08-19T04:23:09;2.80;;;1.87;;
10150;SDS011;5116;52.318;4.644;2022-08-19T04:25:39;2.27;;;1.87;;
10150;SDS011;5116;52.318;4.644;2022-08-19T04:28:07;2.07;;;1.90;;
10150;SDS011;5116;52.318;4.644;2022-08-19T04:30:43;2.10;;;1.90;;
10150;SDS011;5116;52.318;4.644;2022-08-19T04:33:12;2.10;;;1.90;;
10150;SDS011;5116;52.318;4.644;2022-08-19T04:35:40;3.37;;;2.70;;
10150;SDS011;5116;52.318;4.644;2022-08-19T04:38:08;2.83;;;1.90;;
10150;SDS011;5116;52.318;4.644;2022-08-19T04:40:46;2.80;;;2.20;;
10150;SDS011;5116;52.318;4.644;2022-08-19T04:43:32;3.23;;;2.20;;
10150;SDS011;5116;52.318;4.644;2022-08-19T04:46:10;3.33;;;2.57;;
10150;SDS011;5116;52.318;4.644;2022-08-19T04:48:58;3.07;;;2.47;;
10150;SDS011;5116;52.318;4.644;2022-08-19T04:51:35;2.10;;;1.80;;
10150;SDS011;5116;52.318;4.644;2022-08-19T04:54:03;3.07;;;2.30;;
10150;SDS011;5116;52.318;4.644;2022-08-19T04:56:30;4.97;;;3.10;;
10150;SDS011;5116;52.318;4.644;2022-08-19T04:58:58;3.73;;;2.80;;
10150;SDS011;5116;52.318;4.644;2022-08-19T05:01:30;4.30;;;2.93;;
10150;SDS011;5116;52.318;4.644;2022-08-19T05:04:00;4.37;;;3.63;;
10150;SDS011;5116;52.318;4.644;2022-08-19T05:06:27;3.87;;;2.67;;
10150;SDS011;5116;52.318;4.644;2022-08-19T05:08:55;3.47;;;2.83;;
10150;SDS011;5116;52.318;4.644;2022-08-19T05:11:25;4.70;;;3.17;;
10150;SDS011;5116;52.318;4.644;2022-08-19T05:13:52;3.43;;;2.47;;
10150;SDS011;5116;52.318;4.644;2022-08-19T05:16:21;3.50;;;3.03;;
10150;SDS011;5116;52.318;4.644;2022-08-19T05:18:49;4.27;;;3.17;;
10150;SDS011;5116;52.318;4.644;2022-08-19T05:21:35;6.13;;;3.80;;
10150;SDS011;5116;52.318;4.644;2022-08-19T05:24:22;4.27;;;2.63;;
10150;SDS011;5116;52.318;4.644;2022-08-19T05:26:50;3.67;;;2.73;;
10150;SDS011;5116;52.318;4.644;2022-08-19T05:29:19;3.80;;;2.90;;
10150;SDS011;5116;52.318;4.644;2022-08-19T05:31:48;3.30;;;2.23;;
10150;SDS011;5116;52.318;4.644;2022-08-19T05:34:16;2.80;;;2.43;;
10150;SDS011;5116;52.318;4.644;2022-08-19T05:36:45;4.43;;;3.37;;
10150;SDS011;5116;52.318;4.644;2022-08-19T05:39:18;3.50;;;2.60;;
10150;SDS011;5116;52.318;4.644;2022-08-19T05:41:46;5.70;;;3.80;;
10150;SDS011;5116;52.318;4.644;2022-08-19T05:44:14;3.97;;;2.77;;
10150;SDS011;5116;52.318;4.644;2022-08-19T05:46:43;5.07;;;3.13;;
10150;SDS011;5116;52.318;4.644;2022-08-19T05:49:13;7.40;;;3.77;;
10150;SDS011;5116;52.318;4.644;2022-08-19T05:51:42;5.60;;;3.93;;
10150;SDS011;5116;52.318;4.644;2022-08-19T05:54:09;4.60;;;3.33;;
10150;SDS011;5116;52.318;4.644;2022-08-19T05:56:40;4.83;;;3.17;;
10150;SDS011;5116;52.318;4.644;2022-08-19T05:59:08;6.07;;;3.40;;
10150;SDS011;5116;52.318;4.644;2022-08-19T06:01:38;3.20;;;2.40;;
10150;SDS011;5116;52.318;4.644;2022-08-19T06:04:06;4.63;;;3.23;;
10150;SDS011;5116;52.318;4.644;2022-08-19T06:06:33;3.83;;;2.87;;
10150;SDS011;5116;52.318;4.644;2022-08-19T06:09:04;6.83;;;4.33;;
10150;SDS011;5116;52.318;4.644;2022-08-19T06:14:04;7.23;;;3.97;;
10150;SDS011;5116;52.318;4.644;2022-08-19T06:16:41;7.53;;;4.17;;
10150;SDS011;5116;52.318;4.644;2022-08-19T06:19:14;4.03;;;2.40;;
10150;SDS011;5116;52.318;4.644;2022-08-19T06:21:42;3.80;;;2.83;;
10150;SDS011;5116;52.318;4.644;2022-08-19T06:24:11;3.60;;;2.83;;
10150;SDS011;5116;52.318;4.644;2022-08-19T06:26:39;5.93;;;3.90;;
10150;SDS011;5116;52.318;4.644;2022-08-19T06:29:08;5.00;;;3.87;;
10150;SDS011;5116;52.318;4.644;2022-08-19T06:31:50;6.60;;;4.13;;
10150;SDS011;5116;52.318;4.644;2022-08-19T06:34:18;8.50;;;5.00;;
10150;SDS011;5116;52.318;4.644;2022-08-19T06:36:49;4.93;;;4.10;;
10150;SDS011;5116;52.318;4.644;2022-08-19T06:39:18;8.53;;;5.53;;
10150;SDS011;5116;52.318;4.644;2022-08-19T06:41:47;6.87;;;4.57;;
10150;SDS011;5116;52.318;4.644;2022-08-19T06:44:20;5.93;;;4.30;;
10150;SDS011;5116;52.318;4.644;2022-08-19T06:46:51;4.97;;;3.43;;
10150;SDS011;5116;52.318;4.644;2022-08-19T06:49:20;5.30;;;3.83;;
10150;SDS011;5116;52.318;4.644;2022-08-19T06:51:48;5.07;;;3.73;;
10150;SDS011;5116;52.318;4.644;2022-08-19T06:54:17;6.13;;;3.77;;
10150;SDS011;5116;52.318;4.644;2022-08-19T06:56:46;6.77;;;5.23;;
10150;SDS011;5116;52.318;4.644;2022-08-19T06:59:15;5.60;;;3.70;;
10150;SDS011;5116;52.318;4.644;2022-08-19T07:01:44;4.77;;;3.80;;
10150;SDS011;5116;52.318;4.644;2022-08-19T07:04:14;9.07;;;4.63;;
10150;SDS011;5116;52.318;4.644;2022-08-19T07:06:44;6.63;;;4.60;;
10150;SDS011;5116;52.318;4.644;2022-08-19T07:09:20;5.37;;;3.33;;
10150;SDS011;5116;52.318;4.644;2022-08-19T07:11:49;6.07;;;3.67;;
10150;SDS011;5116;52.318;4.644;2022-08-19T07:14:17;5.87;;;3.77;;
10150;SDS011;5116;52.318;4.644;2022-08-19T07:16:49;7.00;;;3.07;;
10150;SDS011;5116;52.318;4.644;2022-08-19T07:19:18;7.23;;;3.67;;
10150;SDS011;5116;52.318;4.644;2022-08-19T07:21:46;4.60;;;3.63;;
10150;SDS011;5116;52.318;4.644;2022-08-19T07:24:16;5.07;;;3.27;;
10150;SDS011;5116;52.318;4.644;2022-08-19T07:26:44;5.43;;;3.77;;
10150;SDS011;5116;52.318;4.644;2022-08-19T07:29:17;5.70;;;3.87;;
10150;SDS011;5116;52.318;4.644;2022-08-19T07:31:45;5.43;;;3.53;;
10150;SDS011;5116;52.318;4.644;2022-08-19T07:34:17;7.07;;;3.80;;
10150;SDS011;5116;52.318;4.644;2022-08-19T07:36:45;3.83;;;3.10;;
10150;SDS011;5116;52.318;4.644;2022-08-19T07:39:14;4.27;;;3.03;;
10150;SDS011;5116;52.318;4.644;2022-08-19T07:41:42;5.73;;;3.33;;
10150;SDS011;5116;52.318;4.644;2022-08-19T07:44:10;3.60;;;3.10;;
10150;SDS011;5116;52.318;4.644;2022-08-19T07:46:40;4.50;;;3.10;;
10150;SDS011;5116;52.318;4.644;2022-08-19T07:49:13;3.80;;;2.80;;
10150;SDS011;5116;52.318;4.644;2022-08-19T07:51:46;5.27;;;3.20;;
10150;SDS011;5116;52.318;4.644;2022-08-19T07:54:15;3.70;;;2.90;;
10150;SDS011;5116;52.318;4.644;2022-08-19T07:56:43;3.67;;;2.77;;
10150;SDS011;5116;52.318;4.644;2022-08-19T07:59:10;4.27;;;2.93;;
10150;SDS011;5116;52.318;4.644;2022-08-19T08:01:38;2.67;;;2.30;;
10150;SDS011;5116;52.318;4.644;2022-08-19T08:04:07;2.97;;;2.70;;
10150;SDS011;5116;52.318;4.644;2022-08-19T08:06:54;4.03;;;2.70;;
10150;SDS011;5116;52.318;4.644;2022-08-19T08:09:41;3.03;;;2.50;;
10150;SDS011;5116;52.318;4.644;2022-08-19T08:12:19;3.17;;;2.50;;
10150;SDS011;5116;52.318;4.644;2022-08-19T08:15:05;3.20;;;2.27;;
10150;SDS011;5116;52.318;4.644;2022-08-19T08:17:37;2.60;;;2.40;;
10150;SDS011;5116;52.318;4.644;2022-08-19T08:20:15;2.37;;;2.17;;
10150;SDS011;5116;52.318;4.644;2022-08-19T08:22:43;4.33;;;2.60;;
10150;SDS011;5116;52.318;4.644;2022-08-19T08:25:30;3.30;;;2.40;;
10150;SDS011;5116;52.318;4.644;2022-08-19T08:28:00;2.77;;;1.80;;
10150;SDS011;5116;52.318;4.644;2022-08-19T08:30:29;2.87;;;2.23;;
10150;SDS011;5116;52.318;4.644;2022-08-19T08:32:59;2.63;;;2.43;;
10150;SDS011;5116;52.318;4.644;2022-08-19T08:35:28;2.43;;;2.23;;
10150;SDS011;5116;52.318;4.644;2022-08-19T08:37:55;2.47;;;1.83;;
10150;SDS011;5116;52.318;4.644;2022-08-19T08:45:44;3.07;;;2.77;;
10150;SDS011;5116;52.318;4.644;2022-08-19T08:48:24;2.83;;;2.40;;
10150;SDS011;5116;52.318;4.644;2022-08-19T08:50:57;3.80;;;2.33;;
10150;SDS011;5116;52.318;4.644;2022-08-19T08:53:26;2.30;;;2.10;;
10150;SDS011;5116;52.318;4.644;2022-08-19T08:56:00;2.40;;;2.20;;
10150;SDS011;5116;52.318;4.644;2022-08-19T08:58:31;2.50;;;2.30;;
10150;SDS011;5116;52.318;4.644;2022-08-19T09:01:11;2.87;;;2.40;;
10150;SDS011;5116;52.318;4.644;2022-08-19T09:03:40;2.40;;;2.20;;
10150;SDS011;5116;52.318;4.644;2022-08-19T09:06:14;2.33;;;2.13;;
10150;SDS011;5116;52.318;4.644;2022-08-19T09:11:42;1.90;;;1.77;;
10150;SDS011;5116;52.318;4.644;2022-08-19T09:14:31;2.30;;;2.00;;
10150;SDS011;5116;52.318;4.644;2022-08-19T09:17:17;2.53;;;2.03;;
10150;SDS011;5116;52.318;4.644;2022-08-19T09:19:52;2.53;;;2.00;;
10150;SDS011;5116;52.318;4.644;2022-08-19T09:22:20;2.67;;;2.47;;
10150;SDS011;5116;52.318;4.644;2022-08-19T09:24:53;2.30;;;2.10;;
10150;SDS011;5116;52.318;4.644;2022-08-19T09:27:20;2.73;;;2.00;;
10150;SDS011;5116;52.318;4.644;2022-08-19T09:30:30;1.90;;;1.80;;
10150;SDS011;5116;52.318;4.644;2022-08-19T09:32:56;2.13;;;1.93;;
10150;SDS011;5116;52.318;4.644;2022-08-19T09:35:25;1.90;;;1.80;;
10150;SDS011;5116;52.318;4.644;2022-08-19T09:37:54;1.90;;;1.70;;
10150;SDS011;5116;52.318;4.644;2022-08-19T09:40:23;2.20;;;2.00;;
10150;SDS011;5116;52.318;4.644;2022-08-19T09:42:52;1.97;;;1.83;;
10150;SDS011;5116;52.318;4.644;2022-08-19T09:45:20;2.17;;;1.97;;
10150;SDS011;5116;52.318;4.644;2022-08-19T09:47:51;1.60;;;1.50;;
10150;SDS011;5116;52.318;4.644;2022-08-19T09:50:21;1.87;;;1.70;;
10150;SDS011;5116;52.318;4.644;2022-08-19T09:52:49;1.90;;;1.70;;
10150;SDS011;5116;52.318;4.644;2022-08-19T09:55:23;1.70;;;1.60;;
10150;SDS011;5116;52.318;4.644;2022-08-19T09:57:58;1.60;;;1.50;;
10150;SDS011;5116;52.318;4.644;2022-08-19T10:00:25;2.20;;;2.00;;
10150;SDS011;5116;52.318;4.644;2022-08-19T10:02:53;1.80;;;1.70;;
10150;SDS011;5116;52.318;4.644;2022-08-19T10:05:20;2.17;;;1.97;;
10150;SDS011;5116;52.318;4.644;2022-08-19T10:08:08;2.10;;;1.97;;
10150;SDS011;5116;52.318;4.644;2022-08-19T10:10:40;2.10;;;1.93;;
10150;SDS011;5116;52.318;4.644;2022-08-19T10:13:13;1.97;;;1.63;;
10150;SDS011;5116;52.318;4.644;2022-08-19T10:15:41;2.50;;;1.90;;
10150;SDS011;5116;52.318;4.644;2022-08-19T10:18:13;2.03;;;1.83;;
10150;SDS011;5116;52.318;4.644;2022-08-19T10:20:45;1.77;;;1.60;;
10150;SDS011;5116;52.318;4.644;2022-08-19T10:23:19;1.77;;;1.67;;
10150;SDS011;5116;52.318;4.644;2022-08-19T10:25:46;2.00;;;1.90;;
10150;SDS011;5116;52.318;4.644;2022-08-19T10:28:14;2.40;;;1.80;;
10150;SDS011;5116;52.318;4.644;2022-08-19T10:30:44;2.00;;;1.80;;
10150;SDS011;5116;52.318;4.644;2022-08-19T10:33:11;1.80;;;1.70;;
10150;SDS011;5116;52.318;4.644;2022-08-19T10:35:40;1.73;;;1.63;;
10150;SDS011;5116;52.318;4.644;2022-08-19T10:38:22;1.90;;;1.73;;
10150;SDS011;5116;52.318;4.644;2022-08-19T10:41:05;1.67;;;1.57;;
10150;SDS011;5116;52.318;4.644;2022-08-19T10:43:33;1.87;;;1.70;;
10150;SDS011;5116;52.318;4.644;2022-08-19T10:46:05;1.77;;;1.67;;
10150;SDS011;5116;52.318;4.644;2022-08-19T10:48:39;1.67;;;1.57;;
10150;SDS011;5116;52.318;4.644;2022-08-19T10:51:07;2.77;;;1.80;;
10150;SDS011;5116;52.318;4.644;2022-08-19T10:53:53;1.57;;;1.47;;
10150;SDS011;5116;52.318;4.644;2022-08-19T10:56:21;1.70;;;1.50;;
10150;SDS011;5116;52.318;4.644;2022-08-19T10:59:20;1.33;;;1.23;;
10150;SDS011;5116;52.318;4.644;2022-08-19T11:01:52;1.67;;;1.57;;
10150;SDS011;5116;52.318;4.644;2022-08-19T11:04:22;1.47;;;1.37;;
10150;SDS011;5116;52.318;4.644;2022-08-19T11:06:55;1.50;;;1.40;;
10150;SDS011;5116;52.318;4.644;2022-08-19T11:09:23;1.57;;;1.47;;
10150;SDS011;5116;52.318;4.644;2022-08-19T11:11:59;1.83;;;1.73;;
10150;SDS011;5116;52.318;4.644;2022-08-19T11:14:30;1.73;;;1.63;;
10150;SDS011;5116;52.318;4.644;2022-08-19T11:17:00;1.53;;;1.43;;
10150;SDS011;5116;52.318;4.644;2022-08-19T11:19:27;1.67;;;1.57;;
10150;SDS011;5116;52.318;4.644;2022-08-19T11:21:54;1.50;;;1.30;;
10150;SDS011;5116;52.318;4.644;2022-08-19T11:24:25;1.50;;;1.40;;
10150;SDS011;5116;52.318;4.644;2022-08-19T11:26:54;1.50;;;1.40;;
10150;SDS011;5116;52.318;4.644;2022-08-19T11:29:27;1.40;;;1.30;;
10150;SDS011;5116;52.318;4.644;2022-08-19T11:31:55;2.17;;;1.60;;
10150;SDS011;5116;52.318;4.644;2022-08-19T11:34:24;1.40;;;1.30;;
10150;SDS011;5116;52.318;4.644;2022-08-19T11:36:54;1.60;;;1.50;;
10150;SDS011;5116;52.318;4.644;2022-08-19T11:39:24;1.30;;;1.20;;
10150;SDS011;5116;52.318;4.644;2022-08-19T11:41:52;1.40;;;1.30;;
10150;SDS011;5116;52.318;4.644;2022-08-19T11:44:19;1.20;;;1.10;;
10150;SDS011;5116;52.318;4.644;2022-08-19T11:46:47;1.40;;;1.20;;
10150;SDS011;5116;52.318;4.644;2022-08-19T11:49:15;1.50;;;1.40;;
10150;SDS011;5116;52.318;4.644;2022-08-19T11:51:45;2.00;;;1.80;;
10150;SDS011;5116;52.318;4.644;2022-08-19T11:54:13;1.23;;;1.13;;
10150;SDS011;5116;52.318;4.644;2022-08-19T11:56:42;1.40;;;1.30;;
10150;SDS011;5116;52.318;4.644;2022-08-19T11:59:09;1.20;;;1.10;;
10150;SDS011;5116;52.318;4.644;2022-08-19T12:01:40;1.50;;;1.40;;
10150;SDS011;5116;52.318;4.644;2022-08-19T12:04:09;1.30;;;1.20;;
10150;SDS011;5116;52.318;4.644;2022-08-19T12:06:37;1.10;;;1.10;;
10150;SDS011;5116;52.318;4.644;2022-08-19T12:09:05;1.33;;;1.23;;
10150;SDS011;5116;52.318;4.644;2022-08-19T12:11:34;1.67;;;1.30;;
10150;SDS011;5116;52.318;4.644;2022-08-19T12:14:02;2.00;;;1.13;;
10150;SDS011;5116;52.318;4.644;2022-08-19T12:16:30;1.60;;;1.20;;
10150;SDS011;5116;52.318;4.644;2022-08-19T12:18:59;1.27;;;1.20;;
10150;SDS011;5116;52.318;4.644;2022-08-19T12:21:30;1.30;;;1.20;;
10150;SDS011;5116;52.318;4.644;2022-08-19T12:23:58;1.00;;;1.00;;
10150;SDS011;5116;52.318;4.644;2022-08-19T12:26:26;2.03;;;1.13;;
10150;SDS011;5116;52.318;4.644;2022-08-19T12:28:54;1.90;;;1.10;;
10150;SDS011;5116;52.318;4.644;2022-08-19T12:31:22;1.33;;;1.00;;
10150;SDS011;5116;52.318;4.644;2022-08-19T12:33:49;0.90;;;0.90;;
10150;SDS011;5116;52.318;4.644;2022-08-19T12:36:18;1.07;;;0.93;;
10150;SDS011;5116;52.318;4.644;2022-08-19T12:38:46;0.80;;;0.80;;
10150;SDS011;5116;52.318;4.644;2022-08-19T12:41:14;1.57;;;1.43;;
10150;SDS011;5116;52.318;4.644;2022-08-19T12:43:44;1.20;;;1.10;;
10150;SDS011;5116;52.318;4.644;2022-08-19T12:46:12;1.00;;;1.00;;
10150;SDS011;5116;52.318;4.644;2022-08-19T12:48:42;0.87;;;0.87;;
10150;SDS011;5116;52.318;4.644;2022-08-19T12:51:13;0.90;;;0.90;;
10150;SDS011;5116;52.318;4.644;2022-08-19T12:53:41;1.03;;;1.03;;
10150;SDS011;5116;52.318;4.644;2022-08-19T12:56:09;1.30;;;1.00;;
10150;SDS011;5116;52.318;4.644;2022-08-19T12:58:38;1.20;;;1.10;;
10150;SDS011;5116;52.318;4.644;2022-08-19T13:01:14;0.90;;;0.90;;
10150;SDS011;5116;52.318;4.644;2022-08-19T13:03:47;1.00;;;0.90;;
10150;SDS011;5116;52.318;4.644;2022-08-19T13:06:16;1.00;;;1.00;;
10150;SDS011;5116;52.318;4.644;2022-08-19T13:08:45;0.90;;;0.90;;
10150;SDS011;5116;52.318;4.644;2022-08-19T13:11:14;0.90;;;0.90;;
10150;SDS011;5116;52.318;4.644;2022-08-19T13:13:44;0.90;;;0.90;;
10150;SDS011;5116;52.318;4.644;2022-08-19T13:16:12;1.00;;;1.00;;
10150;SDS011;5116;52.318;4.644;2022-08-19T13:18:40;1.70;;;1.17;;
10150;SDS011;5116;52.318;4.644;2022-08-19T13:21:09;1.00;;;0.90;;
10150;SDS011;5116;52.318;4.644;2022-08-19T13:23:39;0.80;;;0.80;;
10150;SDS011;5116;52.318;4.644;2022-08-19T13:26:07;0.80;;;0.80;;
10150;SDS011;5116;52.318;4.644;2022-08-19T13:28:35;1.10;;;1.00;;
10150;SDS011;5116;52.318;4.644;2022-08-19T13:31:23;0.90;;;0.90;;
10150;SDS011;5116;52.318;4.644;2022-08-19T13:34:09;0.90;;;0.90;;
10150;SDS011;5116;52.318;4.644;2022-08-19T13:36:37;1.10;;;1.10;;
10150;SDS011;5116;52.318;4.644;2022-08-19T13:39:05;1.00;;;1.00;;
10150;SDS011;5116;52.318;4.644;2022-08-19T13:41:34;0.90;;;0.90;;
10150;SDS011;5116;52.318;4.644;2022-08-19T13:44:02;0.90;;;0.90;;
10150;SDS011;5116;52.318;4.644;2022-08-19T13:46:29;1.20;;;1.13;;
10150;SDS011;5116;52.318;4.644;2022-08-19T13:48:57;0.90;;;0.90;;
10150;SDS011;5116;52.318;4.644;2022-08-19T13:51:24;0.80;;;0.80;;
10150;SDS011;5116;52.318;4.644;2022-08-19T13:53:51;0.77;;;0.77;;
10150;SDS011;5116;52.318;4.644;2022-08-19T13:56:19;0.90;;;0.90;;
10150;SDS011;5116;52.318;4.644;2022-08-19T13:58:51;0.90;;;0.90;;
10150;SDS011;5116;52.318;4.644;2022-08-19T14:01:23;0.77;;;0.77;;
10150;SDS011;5116;52.318;4.644;2022-08-19T14:03:50;0.80;;;0.80;;
10150;SDS011;5116;52.318;4.644;2022-08-19T14:06:19;1.00;;;1.00;;
10150;SDS011;5116;52.318;4.644;2022-08-19T14:08:47;0.93;;;0.93;;
10150;SDS011;5116;52.318;4.644;2022-08-19T14:11:15;0.80;;;0.80;;
10150;SDS011;5116;52.318;4.644;2022-08-19T14:13:43;0.80;;;0.80;;
10150;SDS011;5116;52.318;4.644;2022-08-19T14:16:11;0.80;;;0.80;;
10150;SDS011;5116;52.318;4.644;2022-08-19T14:18:39;0.90;;;0.90;;
10150;SDS011;5116;52.318;4.644;2022-08-19T14:21:07;0.63;;;0.63;;
10150;SDS011;5116;52.318;4.644;2022-08-19T14:23:35;0.80;;;0.80;;
10150;SDS011;5116;52.318;4.644;2022-08-19T14:26:07;0.80;;;0.80;;
10150;SDS011;5116;52.318;4.644;2022-08-19T14:28:34;0.80;;;0.80;;
10150;SDS011;5116;52.318;4.644;2022-08-19T14:31:01;0.70;;;0.70;;
10150;SDS011;5116;52.318;4.644;2022-08-19T14:33:29;0.80;;;0.80;;
10150;SDS011;5116;52.318;4.644;2022-08-19T14:35:56;0.90;;;0.90;;
10150;SDS011;5116;52.318;4.644;2022-08-19T14:38:25;0.80;;;0.80;;
10150;SDS011;5116;52.318;4.644;2022-08-19T14:43:54;0.90;;;0.90;;
10150;SDS011;5116;52.318;4.644;2022-08-19T14:46:23;0.80;;;0.80;;
10150;SDS011;5116;52.318;4.644;2022-08-19T14:48:54;0.80;;;0.80;;
10150;SDS011;5116;52.318;4.644;2022-08-19T14:51:22;1.07;;;1.03;;
10150;SDS011;5116;52.318;4.644;2022-08-19T14:53:50;0.90;;;0.90;;
10150;SDS011;5116;52.318;4.644;2022-08-19T14:56:19;0.90;;;0.90;;
10150;SDS011;5116;52.318;4.644;2022-08-19T14:58:47;1.00;;;0.90;;
10150;SDS011;5116;52.318;4.644;2022-08-19T15:01:18;0.80;;;0.80;;
10150;SDS011;5116;52.318;4.644;2022-08-19T15:03:48;0.90;;;0.90;;
10150;SDS011;5116;52.318;4.644;2022-08-19T15:06:19;0.77;;;0.77;;
10150;SDS011;5116;52.318;4.644;2022-08-19T15:08:46;1.20;;;1.10;;
10150;SDS011;5116;52.318;4.644;2022-08-19T15:11:15;0.90;;;0.90;;
10150;SDS011;5116;52.318;4.644;2022-08-19T15:13:43;0.80;;;0.80;;
10150;SDS011;5116;52.318;4.644;2022-08-19T15:16:13;1.03;;;1.00;;
10150;SDS011;5116;52.318;4.644;2022-08-19T15:18:44;1.13;;;1.00;;
10150;SDS011;5116;52.318;4.644;2022-08-19T15:21:13;0.90;;;0.90;;
10150;SDS011;5116;52.318;4.644;2022-08-19T15:23:52;2.43;;;1.10;;
10150;SDS011;5116;52.318;4.644;2022-08-19T15:26:19;0.83;;;0.83;;
10150;SDS011;5116;52.318;4.644;2022-08-19T15:28:47;0.90;;;0.90;;
10150;SDS011;5116;52.318;4.644;2022-08-19T15:31:16;0.87;;;0.87;;
10150;SDS011;5116;52.318;4.644;2022-08-19T15:33:54;0.97;;;0.93;;